Portada
METAR-TAF:

METAR-TAF

Aeroports :

Irkutsk, Rússia

latitud: 52-16N, longitud: 104-19E, altitud: 513 m

Observació

L'informe es va fer fa 35 minuts, a les 11:00 UTC
Vent 2 kt del Nord
Temperatura -12°C
Humitat 85%
Pressió 1025 hPa
Visibilitat: 4100 m
boirina

METAR: UIII 051100Z 35001MPS 4100 BR NSC M12/M14 Q1025 R30/810550 NOSIG RMK QFE723/0965

Hora: 19:35 (11:35 UTC)

Pronòstic

L'informe es va fer fa 3 hores i 35 minuts, a les 08:00 UTC
Pronòstic vàlid del 05 a les 09 UTC al 06 a les 09 UTC
Vent 6 kt del Nord-Oest
Visibilitat: 4000 m
Núvols disperses a una alçada de 2000 ft
boirina, fum
Temporalment
l' 05 a les 09 UTC al 06 a les 03 UTC
Visibilitat: 0300 m
a una alçada de 100 ft
boira gebradora, fum

TAF: UIII 050800Z 0509/0609 32003MPS 4000 BR FU SCT020 TEMPO 0509/0603 0300 FZFG FU VV001

Observacions i pronòstics meteorològics de més de 4000 aeroports (METAR i TAF).

Les estacions disponibles són els punts grocs i vermells al mapa.

Posi el ratolí al punt desitjat per veure el nom de l'estació.

Feu clic per veure les observacions i els pronòstics meteorològics.

Per canviar el mapa: feu clic els botons verds amb una creu de color negre per apropar; al botó verd amb un guió per allunyar la imatge; o en les fletxes verdes per a mapes adjacents.


METAR-TAF: